Time;durP1;ratioP1;P1;durP2;ratioP2;P2;SDS_P1;SDS_P2;PMS_P1;PMS_P2;Temp;Humidity;BMP_temperature;BMP_pressure;BME280_temperature;BME280_humidity;BME280_pressure;Samples;Min_cycle;Max_cycle;Signal;HPM_P1;HPM_P2
2023/05/14 00:01:54;;;;;;;10.40;8.20;;;8.40;99.90;;;;;;5074521;28;20067;-78
2023/05/14 00:04:20;;;;;;;11.32;8.52;;;8.40;99.90;;;;;;5075548;28;20025;-78
2023/05/14 00:06:45;;;;;;;10.20;8.23;;;8.40;99.90;;;;;;5075185;28;20048;-78
2023/05/14 00:09:12;;;;;;;17.90;8.65;;;8.40;99.90;;;;;;5074149;28;20543;-78
2023/05/14 00:11:37;;;;;;;12.82;8.30;;;8.40;99.90;;;;;;5074139;28;20020;-78
2023/05/14 00:14:04;;;;;;;13.68;8.38;;;8.30;99.90;;;;;;5074394;28;20466;-79
2023/05/14 00:16:29;;;;;;;15.98;10.30;;;8.30;99.90;;;;;;5075545;28;20103;-78
2023/05/14 00:18:55;;;;;;;13.55;10.82;;;8.30;99.90;;;;;;5082838;28;20166;-78
2023/05/14 00:21:21;;;;;;;15.23;10.18;;;8.20;99.90;;;;;;5094348;28;20478;-78
2023/05/14 00:23:46;;;;;;;16.58;10.10;;;8.20;99.90;;;;;;5094233;28;20031;-78
2023/05/14 00:26:12;;;;;;;13.30;8.50;;;8.10;99.90;;;;;;5094224;28;20433;-78
2023/05/14 00:28:37;;;;;;;13.52;9.00;;;8.10;99.90;;;;;;5094068;28;20103;-78
2023/05/14 00:31:03;;;;;;;14.88;9.55;;;8.10;99.90;;;;;;5094105;28;20020;-78
2023/05/14 00:33:29;;;;;;;13.90;9.55;;;8.10;99.90;;;;;;5093801;28;20035;-78
2023/05/14 00:35:54;;;;;;;15.43;9.25;;;8.00;99.90;;;;;;5095333;28;20028;-78
2023/05/14 00:38:20;;;;;;;14.75;10.02;;;8.00;99.90;;;;;;5095278;28;20043;-78
2023/05/14 00:40:50;;;;;;;13.07;8.88;;;8.00;99.90;;;;;;5093906;28;20488;-78
2023/05/14 00:43:19;;;;;;;10.68;9.00;;;8.00;99.90;;;;;;5095067;28;20028;-78
2023/05/14 00:45:46;;;;;;;16.05;9.90;;;8.00;99.90;;;;;;5095091;28;20381;-78
2023/05/14 00:48:12;;;;;;;14.80;9.50;;;8.00;99.90;;;;;;5094993;28;20523;-78
2023/05/14 00:50:38;;;;;;;15.52;9.45;;;8.00;99.90;;;;;;5095197;28;20028;-78
2023/05/14 00:53:08;;;;;;;11.73;9.32;;;8.00;99.90;;;;;;5094799;28;20462;-78
2023/05/14 00:55:39;;;;;;;11.50;8.82;;;8.00;99.90;;;;;;5094933;28;20060;-78
2023/05/14 00:58:08;;;;;;;12.13;9.45;;;8.00;99.90;;;;;;5094820;28;20036;-78
2023/05/14 01:00:35;;;;;;;14.60;9.27;;;8.00;99.90;;;;;;5093523;28;20055;-79
2023/05/14 01:03:02;;;;;;;16.20;10.27;;;8.00;99.90;;;;;;5086648;28;20056;-78
2023/05/14 01:05:55;;;;;;;13.85;10.27;;;7.90;99.90;;;;;;5074372;28;20021;-78
2023/05/14 01:08:45;;;;;;;13.43;11.15;;;7.80;99.90;;;;;;5074072;28;20036;-78
2023/05/14 01:11:39;;;;;;;15.80;12.25;;;7.80;99.90;;;;;;5074344;28;20457;-78
2023/05/14 01:14:08;;;;;;;17.55;11.90;;;7.70;99.90;;;;;;5074378;28;20021;-78
2023/05/14 01:16:36;;;;;;;23.20;13.27;;;7.70;99.90;;;;;;5072795;28;20444;-78
2023/05/14 01:19:06;;;;;;;16.55;12.68;;;7.70;99.90;;;;;;5072341;28;20477;-78
2023/05/14 01:21:41;;;;;;;17.85;12.40;;;7.70;99.90;;;;;;5074048;28;20427;-78
2023/05/14 01:24:07;;;;;;;17.58;12.93;;;7.60;99.90;;;;;;5072790;28;20016;-78
2023/05/14 01:26:34;;;;;;;24.33;13.93;;;7.60;99.90;;;;;;5072875;28;20032;-78
2023/05/14 01:29:23;;;;;;;19.05;14.50;;;7.60;99.90;;;;;;5072790;28;20094;-79
2023/05/14 01:31:53;;;;;;;20.55;13.77;;;7.60;99.90;;;;;;5072795;28;20087;-78
2023/05/14 01:34:21;;;;;;;18.17;14.13;;;7.60;99.90;;;;;;5073622;28;20048;-78
2023/05/14 01:36:48;;;;;;;18.55;12.70;;;7.50;99.90;;;;;;5072548;28;20021;-79
2023/05/14 01:39:14;;;;;;;19.40;13.70;;;7.50;99.90;;;;;;5072325;28;20111;-78
2023/05/14 01:41:41;;;;;;;18.77;14.23;;;7.50;99.90;;;;;;5072581;28;20129;-78
2023/05/14 01:44:08;;;;;;;22.10;13.18;;;7.40;99.90;;;;;;5073620;28;20028;-78
2023/05/14 01:46:34;;;;;;;18.15;13.05;;;7.40;99.90;;;;;;5073672;28;20032;-78
2023/05/14 01:49:00;;;;;;;18.05;13.25;;;7.40;99.90;;;;;;5073681;28;20025;-78
2023/05/14 01:51:26;;;;;;;19.67;14.02;;;7.40;99.90;;;;;;5073641;28;20074;-78
2023/05/14 01:53:51;;;;;;;21.75;13.65;;;7.40;99.90;;;;;;5073666;28;20029;-78
2023/05/14 01:56:20;;;;;;;20.27;12.32;;;7.30;99.90;;;;;;5073559;28;20436;-78
2023/05/14 01:58:46;;;;;;;18.58;11.80;;;7.30;99.90;;;;;;5072180;28;20056;-78
2023/05/14 02:01:12;;;;;;;23.30;14.30;;;7.20;99.90;;;;;;5072249;28;20074;-78
2023/05/14 02:03:37;;;;;;;19.00;13.00;;;7.20;99.90;;;;;;5072245;28;20024;-78
2023/05/14 02:06:03;;;;;;;22.50;12.77;;;7.10;99.90;;;;;;5073420;28;20059;-78
2023/05/14 02:08:29;;;;;;;18.35;12.88;;;7.10;99.90;;;;;;5073375;28;20053;-78
2023/05/14 02:10:54;;;;;;;14.65;11.45;;;7.10;99.90;;;;;;5072077;28;20474;-78
2023/05/14 02:13:20;;;;;;;17.85;12.57;;;7.10;99.90;;;;;;5072056;28;20232;-78
2023/05/14 02:15:45;;;;;;;18.40;12.30;;;7.10;99.90;;;;;;5073358;28;20096;-78
2023/05/14 02:18:11;;;;;;;13.95;11.15;;;7.00;99.90;;;;;;5073151;28;20032;-78
2023/05/14 02:20:37;;;;;;;20.67;12.00;;;7.00;99.90;;;;;;5073307;28;20113;-78
2023/05/14 02:23:02;;;;;;;16.25;10.98;;;6.90;99.90;;;;;;5073102;28;20466;-78
2023/05/14 02:25:28;;;;;;;16.65;11.10;;;6.90;99.90;;;;;;5072093;28;20028;-78
2023/05/14 02:27:53;;;;;;;16.33;10.75;;;6.90;99.90;;;;;;5073102;28;20103;-78
2023/05/14 02:30:20;;;;;;;14.25;11.13;;;6.80;99.90;;;;;;5073205;28;20083;-78
2023/05/14 02:32:46;;;;;;;17.80;11.73;;;6.80;99.90;;;;;;5073116;28;20449;-78
2023/05/14 02:35:12;;;;;;;16.73;11.38;;;6.80;99.90;;;;;;5073093;28;20102;-78
2023/05/14 02:37:37;;;;;;;17.40;10.40;;;6.80;99.90;;;;;;5073085;28;20025;-78
2023/05/14 02:40:03;;;;;;;14.75;9.38;;;6.80;99.90;;;;;;5073145;28;20389;-78
2023/05/14 02:42:29;;;;;;;12.52;9.25;;;6.80;99.90;;;;;;5071682;28;20017;-78
2023/05/14 02:44:54;;;;;;;15.63;9.77;;;6.90;99.90;;;;;;5073058;28;20032;-78
2023/05/14 02:47:20;;;;;;;11.27;8.23;;;6.90;99.90;;;;;;5071701;28;20382;-78
2023/05/14 02:49:45;;;;;;;14.15;9.25;;;6.90;99.90;;;;;;5073106;28;20122;-78
2023/05/14 02:52:11;;;;;;;11.35;9.35;;;6.90;99.90;;;;;;5071639;28;20050;-77
2023/05/14 02:54:37;;;;;;;10.35;8.82;;;6.90;99.90;;;;;;5071797;28;20021;-78
2023/05/14 02:57:02;;;;;;;13.57;9.90;;;6.90;99.90;;;;;;5072828;28;20032;-78
2023/05/14 02:59:29;;;;;;;13.15;9.15;;;7.00;99.90;;;;;;5071556;28;20401;-78
2023/05/14 03:01:54;;;;;;;11.82;9.85;;;7.00;99.90;;;;;;5072910;28;20054;-78
2023/05/14 03:04:20;;;;;;;11.50;9.27;;;7.00;99.90;;;;;;5071513;28;20535;-78
2023/05/14 03:06:45;;;;;;;13.02;9.00;;;7.00;99.90;;;;;;5072992;28;20028;-78
2023/05/14 03:09:11;;;;;;;10.68;8.48;;;7.10;99.90;;;;;;5071479;28;20485;-78
2023/05/14 03:11:37;;;;;;;11.40;8.80;;;7.10;99.90;;;;;;5072811;28;20017;-78
2023/05/14 03:14:02;;;;;;;12.35;9.27;;;7.10;99.90;;;;;;5072760;28;20063;-78
2023/05/14 03:16:28;;;;;;;13.15;8.95;;;7.20;99.90;;;;;;5072826;28;20470;-78
2023/05/14 03:18:53;;;;;;;13.82;9.10;;;7.20;99.90;;;;;;5072638;28;20037;-78
2023/05/14 03:21:19;;;;;;;12.05;8.75;;;7.30;99.90;;;;;;5072822;28;20027;-78
2023/05/14 03:23:45;;;;;;;12.00;9.02;;;7.30;99.90;;;;;;5071293;28;20029;-78
2023/05/14 03:26:10;;;;;;;12.13;8.52;;;7.30;99.90;;;;;;5070602;28;20052;-78
2023/05/14 03:28:36;;;;;;;10.20;8.93;;;7.30;99.90;;;;;;5070626;28;20488;-78
2023/05/14 03:31:01;;;;;;;11.63;7.88;;;7.30;99.90;;;;;;5070507;28;20397;-78
2023/05/14 03:33:27;;;;;;;12.10;8.88;;;7.40;99.90;;;;;;5069120;28;20020;-78
2023/05/14 03:35:53;;;;;;;12.82;8.05;;;7.40;99.90;;;;;;5070623;28;20460;-78
2023/05/14 03:38:18;;;;;;;10.77;6.97;;;7.50;99.90;;;;;;5069222;28;20033;-78
2023/05/14 03:40:44;;;;;;;8.27;6.78;;;7.50;99.90;;;;;;5071552;28;20070;-78
2023/05/14 03:43:10;;;;;;;7.70;6.40;;;7.60;99.90;;;;;;5074571;28;20030;-78
2023/05/14 03:45:36;;;;;;;8.18;7.35;;;7.70;99.90;;;;;;5074048;28;20056;-78
2023/05/14 03:48:02;;;;;;;6.88;6.07;;;7.90;99.90;;;;;;5072628;28;20020;-78
2023/05/14 03:50:27;;;;;;;9.93;6.15;;;8.10;99.90;;;;;;5072622;28;20115;-78
2023/05/14 03:52:53;;;;;;;7.72;6.55;;;8.20;99.90;;;;;;5073887;28;20032;-78
2023/05/14 03:55:20;;;;;;;8.48;6.18;;;8.40;99.90;;;;;;5073905;28;20020;-78
2023/05/14 03:57:46;;;;;;;7.68;5.22;;;8.60;99.90;;;;;;5074561;28;20041;-78
2023/05/14 04:00:12;;;;;;;5.45;4.95;;;8.80;99.90;;;;;;5074590;28;20021;-78
2023/05/14 04:02:38;;;;;;;6.15;5.43;;;9.00;99.90;;;;;;5075731;28;20027;-78
2023/05/14 04:05:04;;;;;;;7.15;6.43;;;9.10;99.60;;;;;;5075684;28;20099;-78
2023/05/14 04:07:29;;;;;;;9.10;6.72;;;9.20;98.30;;;;;;5075732;28;20028;-78
2023/05/14 04:09:55;;;;;;;6.82;5.72;;;9.30;99.00;;;;;;5075549;28;20028;-78
2023/05/14 04:12:21;;;;;;;6.95;6.25;;;9.40;99.30;;;;;;5074148;28;20033;-78
2023/05/14 04:14:46;;;;;;;7.57;6.00;;;9.50;98.80;;;;;;5075563;28;20095;-78
2023/05/14 04:17:12;;;;;;;8.60;6.68;;;9.70;98.30;;;;;;5075419;28;20474;-78
2023/05/14 04:19:39;;;;;;;8.57;7.18;;;9.80;98.00;;;;;;5075327;28;20549;-78
2023/05/14 04:22:05;;;;;;;8.75;7.82;;;10.00;96.90;;;;;;5073944;28;20013;-78
2023/05/14 04:24:30;;;;;;;11.10;8.05;;;10.00;94.70;;;;;;5074011;28;20028;-78
2023/05/14 04:26:56;;;;;;;9.40;8.05;;;10.10;94.60;;;;;;5075270;28;20025;-78
2023/05/14 04:29:22;;;;;;;8.23;7.30;;;10.10;92.10;;;;;;5075175;28;20409;-78
2023/05/14 04:31:48;;;;;;;9.70;7.03;;;10.10;91.10;;;;;;5075173;28;20027;-78
2023/05/14 04:34:14;;;;;;;9.18;7.15;;;10.10;92.30;;;;;;5075085;28;20079;-78
2023/05/14 04:36:40;;;;;;;7.72;6.78;;;10.20;91.60;;;;;;5075100;28;20099;-78
2023/05/14 04:39:08;;;;;;;8.15;7.20;;;10.30;92.20;;;;;;5073634;28;20162;-77
2023/05/14 04:41:33;;;;;;;14.07;7.03;;;10.40;92.00;;;;;;5075094;28;20025;-77
2023/05/14 04:44:00;;;;;;;9.10;7.90;;;10.50;90.70;;;;;;5074459;28;20437;-77
2023/05/14 04:46:26;;;;;;;10.95;6.78;;;10.60;90.60;;;;;;5074546;28;20021;-78
2023/05/14 04:48:52;;;;;;;10.88;7.10;;;10.70;88.60;;;;;;5073456;28;20488;-77
2023/05/14 04:51:18;;;;;;;7.47;6.43;;;10.70;88.80;;;;;;5074485;28;20025;-77
2023/05/14 04:53:43;;;;;;;9.77;6.90;;;10.70;88.50;;;;;;5072383;28;20028;-77
2023/05/14 04:56:09;;;;;;;8.30;7.25;;;10.80;89.50;;;;;;5073468;28;20016;-78
2023/05/14 04:58:35;;;;;;;7.15;6.03;;;10.90;88.10;;;;;;5074426;28;20036;-77
2023/05/14 05:01:01;;;;;;;8.85;6.85;;;10.90;87.20;;;;;;5073430;28;20090;-77
2023/05/14 05:03:27;;;;;;;6.93;5.82;;;10.90;87.70;;;;;;5074701;28;20506;-77
2023/05/14 05:05:53;;;;;;;7.80;6.22;;;10.80;87.90;;;;;;5056026;28;20029;-78
2023/05/14 05:08:18;;;;;;;9.57;6.97;;;10.70;88.50;;;;;;5054378;28;20516;-78
2023/05/14 05:10:44;;;;;;;8.60;6.22;;;10.70;90.10;;;;;;5068388;28;20024;-77
2023/05/14 05:13:10;;;;;;;9.20;5.63;;;10.70;91.00;;;;;;5074238;28;20017;-77
2023/05/14 05:15:35;;;;;;;6.97;4.82;;;10.80;89.40;;;;;;5074246;28;20025;-77
2023/05/14 05:18:01;;;;;;;6.28;4.95;;;10.80;90.90;;;;;;5072686;28;20086;-77
2023/05/14 05:20:27;;;;;;;6.93;4.95;;;10.90;89.00;;;;;;5074081;28;20020;-78
2023/05/14 05:22:52;;;;;;;6.43;4.60;;;11.00;88.60;;;;;;5072752;28;20416;-77
2023/05/14 05:25:18;;;;;;;6.07;4.60;;;11.10;87.40;;;;;;5073971;28;20516;-77
2023/05/14 05:27:44;;;;;;;7.75;5.20;;;11.20;87.10;;;;;;5073971;28;20017;-78
2023/05/14 05:30:10;;;;;;;5.88;4.47;;;11.30;88.00;;;;;;5072617;28;20036;-78
2023/05/14 05:32:36;;;;;;;4.57;4.07;;;11.40;86.90;;;;;;5073830;28;20082;-78
2023/05/14 05:35:02;;;;;;;6.22;4.10;;;11.40;85.90;;;;;;5073717;28;20037;-78
2023/05/14 05:37:28;;;;;;;5.35;4.05;;;11.50;84.20;;;;;;5072379;28;20027;-78
2023/05/14 05:39:54;;;;;;;5.82;4.50;;;11.50;84.70;;;;;;5072480;28;20063;-77
2023/05/14 05:42:19;;;;;;;4.18;3.60;;;11.70;83.10;;;;;;5073692;28;20017;-77
2023/05/14 05:44:45;;;;;;;4.03;3.63;;;11.70;83.40;;;;;;5072397;28;20385;-77
2023/05/14 05:47:11;;;;;;;5.03;3.63;;;11.70;83.70;;;;;;5073562;28;20107;-78
2023/05/14 05:49:36;;;;;;;6.35;4.53;;;11.70;81.90;;;;;;5072330;28;20042;-77
2023/05/14 05:52:03;;;;;;;7.45;3.70;;;11.80;80.30;;;;;;5072133;28;20023;-77
2023/05/14 05:54:31;;;;;;;3.95;3.40;;;11.90;80.10;;;;;;5073613;28;20517;-77
2023/05/14 05:56:56;;;;;;;3.67;3.38;;;12.10;81.90;;;;;;5072324;28;20020;-77
2023/05/14 05:59:23;;;;;;;4.38;3.97;;;12.30;81.50;;;;;;5072091;28;20516;-77
2023/05/14 06:01:48;;;;;;;4.45;3.80;;;12.40;80.00;;;;;;5073427;28;20017;-77
2023/05/14 06:04:14;;;;;;;4.55;3.42;;;12.60;80.80;;;;;;5071577;28;20021;-78
2023/05/14 06:06:40;;;;;;;5.45;4.40;;;12.70;77.40;;;;;;5073381;28;20029;-77
2023/05/14 06:09:05;;;;;;;5.53;3.80;;;12.70;76.80;;;;;;5073392;28;20025;-78
2023/05/14 06:11:31;;;;;;;4.10;3.70;;;12.80;76.10;;;;;;5072948;28;20028;-77
2023/05/14 06:13:57;;;;;;;4.80;3.65;;;12.80;76.80;;;;;;5071434;28;20090;-78
2023/05/14 06:16:23;;;;;;;7.40;3.72;;;12.80;76.50;;;;;;5072729;28;20017;-79
2023/05/14 06:18:48;;;;;;;4.18;3.65;;;12.80;75.90;;;;;;5072605;28;20056;-79
2023/05/14 06:21:14;;;;;;;3.90;3.50;;;13.00;75.90;;;;;;5072730;28;20091;-77
2023/05/14 06:23:40;;;;;;;4.10;3.80;;;13.10;74.60;;;;;;5071367;28;20607;-77
2023/05/14 06:26:06;;;;;;;3.63;3.33;;;13.30;73.00;;;;;;5071308;28;20501;-77
2023/05/14 06:28:31;;;;;;;3.30;3.10;;;13.40;73.90;;;;;;5071377;28;20021;-78
2023/05/14 06:30:57;;;;;;;4.65;3.33;;;13.60;72.90;;;;;;5072720;28;20020;-77
2023/05/14 06:33:29;;;;;;;4.18;3.25;;;13.60;72.30;;;;;;5072426;28;20024;-77
2023/05/14 06:35:55;;;;;;;3.15;2.90;;;13.80;72.00;;;;;;5070439;28;20038;-78
2023/05/14 06:38:21;;;;;;;3.30;2.90;;;14.00;70.90;;;;;;5072417;28;20127;-77
2023/05/14 06:40:46;;;;;;;5.40;3.10;;;14.10;70.50;;;;;;5071213;28;20036;-77
2023/05/14 06:43:12;;;;;;;3.35;3.03;;;14.20;68.30;;;;;;5071271;28;20025;-79
2023/05/14 06:45:37;;;;;;;5.07;3.10;;;14.20;68.20;;;;;;5071623;28;20027;-79
2023/05/14 06:48:03;;;;;;;4.22;3.17;;;14.20;67.90;;;;;;5071307;28;20020;-79
2023/05/14 06:50:29;;;;;;;3.28;2.90;;;14.30;68.20;;;;;;5071201;28;20116;-78
2023/05/14 06:52:55;;;;;;;3.75;3.45;;;14.40;67.70;;;;;;5070782;28;20020;-78
2023/05/14 06:55:21;;;;;;;3.83;3.42;;;14.30;66.80;;;;;;5072036;28;20479;-78
2023/05/14 06:57:46;;;;;;;3.33;2.53;;;14.10;66.60;;;;;;5071992;28;20028;-78
2023/05/14 07:00:13;;;;;;;3.15;2.85;;;14.00;66.20;;;;;;5072662;28;20023;-78
2023/05/14 07:02:39;;;;;;;3.60;3.03;;;13.90;66.10;;;;;;5072254;28;20024;-78
2023/05/14 07:05:04;;;;;;;4.47;3.00;;;14.00;67.00;;;;;;5072242;28;20466;-78
2023/05/14 07:07:30;;;;;;;5.60;2.95;;;14.10;65.90;;;;;;5071034;28;20012;-78
2023/05/14 07:09:56;;;;;;;4.13;2.97;;;14.20;65.60;;;;;;5072546;28;20493;-77
2023/05/14 07:12:21;;;;;;;4.20;2.88;;;14.40;65.50;;;;;;5072499;28;20028;-78
2023/05/14 07:14:47;;;;;;;3.22;2.65;;;14.30;65.00;;;;;;5072378;28;20032;-77
2023/05/14 07:17:13;;;;;;;4.22;3.20;;;14.30;65.60;;;;;;5075544;28;20059;-77
2023/05/14 07:19:39;;;;;;;3.22;2.92;;;14.50;65.60;;;;;;5074801;28;20032;-77
2023/05/14 07:22:05;;;;;;;3.05;2.85;;;14.60;64.60;;;;;;5076248;28;20490;-78
2023/05/14 07:24:30;;;;;;;3.20;2.53;;;14.80;62.90;;;;;;5076295;28;20025;-78
2023/05/14 07:26:56;;;;;;;3.20;2.90;;;15.00;63.70;;;;;;5076326;28;20067;-78
2023/05/14 07:29:24;;;;;;;3.22;2.90;;;15.00;62.20;;;;;;5076115;28;20024;-79
2023/05/14 07:31:50;;;;;;;4.60;3.30;;;15.00;62.10;;;;;;5075015;28;20435;-79
2023/05/14 07:34:15;;;;;;;3.65;3.25;;;15.10;62.30;;;;;;5075543;28;20456;-79
2023/05/14 07:36:41;;;;;;;3.60;3.30;;;15.20;63.40;;;;;;5074862;28;20020;-77
2023/05/14 07:39:07;;;;;;;5.38;3.47;;;15.20;63.10;;;;;;5075781;28;20484;-79
2023/05/14 07:41:33;;;;;;;3.70;3.40;;;15.40;63.00;;;;;;5075531;28;20020;-79
2023/05/14 07:43:59;;;;;;;3.38;2.83;;;15.50;62.60;;;;;;5075793;28;20043;-77
2023/05/14 07:46:24;;;;;;;3.38;2.90;;;15.60;61.70;;;;;;5076057;28;20386;-77
2023/05/14 07:48:50;;;;;;;3.30;2.70;;;15.80;61.50;;;;;;5074710;28;20025;-77
2023/05/14 07:51:16;;;;;;;6.20;3.40;;;15.90;61.20;;;;;;5076026;28;20017;-77
2023/05/14 07:53:41;;;;;;;3.72;2.80;;;16.20;60.70;;;;;;5075868;28;20028;-78
2023/05/14 07:56:07;;;;;;;3.90;3.38;;;16.30;60.60;;;;;;5074694;28;20028;-78
2023/05/14 07:58:34;;;;;;;3.40;3.10;;;16.40;61.00;;;;;;5074288;28;20032;-77
2023/05/14 08:01:00;;;;;;;4.30;3.13;;;16.60;60.20;;;;;;5075832;28;20025;-78
2023/05/14 08:03:25;;;;;;;3.67;2.90;;;16.40;59.40;;;;;;5075774;28;20031;-77
2023/05/14 08:05:51;;;;;;;6.18;3.95;;;16.40;60.40;;;;;;5074318;28;20016;-77
2023/05/14 08:08:17;;;;;;;4.28;3.88;;;16.40;61.10;;;;;;5074139;28;20099;-79
2023/05/14 08:10:43;;;;;;;3.15;2.85;;;16.80;59.90;;;;;;5075464;28;20431;-79
2023/05/14 08:13:08;;;;;;;5.65;2.90;;;16.80;60.00;;;;;;5074036;28;20082;-79
2023/05/14 08:15:34;;;;;;;9.20;6.93;;;16.80;58.80;;;;;;5075224;28;20032;-79
2023/05/14 08:18:02;;;;;;;3.80;3.35;;;16.70;58.90;;;;;;5075229;28;20033;-79
2023/05/14 08:20:29;;;;;;;4.20;2.92;;;16.80;58.80;;;;;;5075244;28;20119;-79
2023/05/14 08:22:56;;;;;;;3.08;2.78;;;16.70;59.20;;;;;;5075242;28;20459;-78
2023/05/14 08:25:22;;;;;;;2.97;2.40;;;16.80;58.50;;;;;;5074099;28;20048;-78
2023/05/14 08:27:48;;;;;;;3.35;2.88;;;16.80;57.70;;;;;;5075058;28;20056;-78
2023/05/14 08:30:14;;;;;;;5.55;3.28;;;17.00;57.10;;;;;;5073908;28;20066;-77
2023/05/14 08:32:39;;;;;;;3.05;2.58;;;17.20;58.60;;;;;;5075102;28;20063;-77
2023/05/14 08:35:05;;;;;;;3.53;2.65;;;17.30;56.70;;;;;;5073711;28;20072;-79
2023/05/14 08:37:31;;;;;;;3.78;2.90;;;17.30;55.50;;;;;;5074751;28;20036;-79
2023/05/14 08:39:57;;;;;;;3.03;2.80;;;17.50;56.60;;;;;;5074847;28;20032;-77
2023/05/14 08:42:24;;;;;;;3.60;2.63;;;17.70;55.30;;;;;;5074644;28;20023;-79
2023/05/14 08:45:01;;;;;;;3.53;2.97;;;17.90;54.20;;;;;;5074834;28;20048;-77
2023/05/14 08:47:31;;;;;;;3.25;2.83;;;18.00;53.90;;;;;;5074613;28;20021;-76
2023/05/14 08:50:05;;;;;;;2.70;2.50;;;18.20;53.70;;;;;;5074675;28;20103;-79
2023/05/14 08:52:31;;;;;;;4.35;3.25;;;18.40;52.00;;;;;;5074504;28;20045;-79
2023/05/14 08:55:03;;;;;;;4.80;2.92;;;18.40;51.80;;;;;;5074761;28;20024;-77
2023/05/14 08:57:30;;;;;;;4.40;3.20;;;18.70;51.60;;;;;;5074657;28;20470;-78
2023/05/14 08:59:56;;;;;;;5.15;3.03;;;18.70;50.30;;;;;;5073446;28;20592;-78
2023/05/14 09:02:26;;;;;;;3.40;3.10;;;18.80;51.60;;;;;;5073351;28;20032;-78
2023/05/14 09:04:55;;;;;;;4.43;3.08;;;18.70;51.40;;;;;;5074529;28;20020;-78
2023/05/14 09:07:21;;;;;;;3.38;3.05;;;18.60;51.00;;;;;;5071209;28;20060;-78
2023/05/14 09:09:47;;;;;;;3.58;3.00;;;18.60;51.60;;;;;;5053752;28;20057;-79
2023/05/14 09:12:13;;;;;;;3.03;2.83;;;18.80;50.60;;;;;;5053104;28;20119;-78
2023/05/14 09:14:38;;;;;;;8.60;3.38;;;18.70;51.50;;;;;;5053354;28;20503;-77
2023/05/14 09:17:04;;;;;;;3.45;3.15;;;18.90;52.40;;;;;;5053976;28;20028;-77
2023/05/14 09:19:30;;;;;;;3.45;3.10;;;18.90;50.70;;;;;;5052629;28;20121;-79
2023/05/14 09:21:58;;;;;;;3.55;3.10;;;18.70;49.80;;;;;;5052711;28;20029;-79
2023/05/14 09:24:27;;;;;;;3.67;3.38;;;18.60;50.00;;;;;;5053932;28;20579;-77
2023/05/14 09:26:57;;;;;;;3.08;2.88;;;18.60;50.90;;;;;;5053871;28;20116;-78
2023/05/14 09:29:28;;;;;;;3.28;2.70;;;18.60;50.90;;;;;;5052521;28;20486;-78
2023/05/14 09:31:55;;;;;;;3.30;3.00;;;18.60;51.10;;;;;;5053690;28;20021;-78
2023/05/14 09:34:25;;;;;;;3.65;3.35;;;18.70;51.40;;;;;;5052309;28;20061;-78
2023/05/14 09:37:02;;;;;;;3.60;2.92;;;18.80;50.90;;;;;;5053636;28;20025;-79
2023/05/14 09:39:28;;;;;;;3.17;2.72;;;18.70;50.40;;;;;;5051741;28;20071;-78
2023/05/14 09:41:54;;;;;;;3.97;3.20;;;18.80;50.00;;;;;;5053602;28;20048;-79
2023/05/14 09:44:21;;;;;;;3.30;3.00;;;18.90;51.70;;;;;;5053891;28;20745;-79
2023/05/14 09:46:47;;;;;;;4.10;3.05;;;18.80;50.90;;;;;;5072214;28;20066;-78
2023/05/14 09:49:13;;;;;;;3.85;3.20;;;18.90;51.50;;;;;;5058314;28;20071;-78
2023/05/14 09:51:39;;;;;;;4.85;3.20;;;18.90;51.80;;;;;;5055483;28;20130;-78
2023/05/14 09:54:05;;;;;;;5.57;3.20;;;18.90;52.10;;;;;;5072418;28;20031;-78
2023/05/14 09:56:32;;;;;;;5.43;3.90;;;18.90;51.40;;;;;;5076308;28;20028;-78
2023/05/14 09:58:58;;;;;;;4.28;3.03;;;19.00;52.00;;;;;;5084257;28;20488;-78
2023/05/14 10:01:24;;;;;;;2.63;2.42;;;19.10;50.70;;;;;;5089500;28;20028;-78
2023/05/14 10:03:52;;;;;;;4.28;3.10;;;19.00;49.80;;;;;;5093185;28;20024;-78
2023/05/14 10:06:22;;;;;;;3.75;2.92;;;18.90;49.40;;;;;;5078948;28;20106;-78
2023/05/14 10:08:54;;;;;;;3.42;2.67;;;18.90;50.80;;;;;;5072613;28;20043;-79
2023/05/14 10:11:26;;;;;;;3.35;2.92;;;18.80;50.50;;;;;;5072514;28;20041;-79
2023/05/14 10:14:02;;;;;;;6.25;3.00;;;18.80;51.20;;;;;;5072588;28;20115;-78
2023/05/14 10:16:32;;;;;;;3.55;3.00;;;18.90;51.00;;;;;;5072429;28;20393;-78
2023/05/14 10:19:07;;;;;;;3.75;3.35;;;19.20;52.90;;;;;;5070783;28;20044;-78
2023/05/14 10:21:35;;;;;;;2.65;2.45;;;19.20;52.40;;;;;;5069144;28;20024;-78
2023/05/14 10:24:06;;;;;;;7.40;3.03;;;19.00;52.70;;;;;;5072225;28;20032;-78
2023/05/14 10:26:33;;;;;;;4.28;2.70;;;18.80;52.20;;;;;;5071911;28;20525;-78
2023/05/14 10:28:59;;;;;;;2.85;2.63;;;18.80;52.90;;;;;;5070030;28;20436;-78
2023/05/14 10:31:43;;;;;;;3.58;3.05;;;18.80;53.40;;;;;;5072973;28;20021;-77
2023/05/14 10:34:39;;;;;;;4.15;3.47;;;18.80;53.10;;;;;;5071443;28;20051;-77
2023/05/14 10:37:24;;;;;;;2.55;2.33;;;18.80;52.10;;;;;;5071608;28;20023;-77
2023/05/14 10:39:55;;;;;;;2.70;1.95;;;18.80;52.90;;;;;;5071564;28;20170;-77
2023/05/14 10:42:24;;;;;;;2.33;2.13;;;18.90;53.30;;;;;;5072788;28;20044;-76
2023/05/14 10:44:54;;;;;;;2.28;2.03;;;18.90;52.80;;;;;;5069651;28;20024;-77
2023/05/14 10:47:20;;;;;;;1.80;1.70;;;18.80;51.10;;;;;;5071255;28;20025;-77
2023/05/14 10:49:49;;;;;;;1.70;1.60;;;18.90;50.40;;;;;;5073841;28;20036;-77
2023/05/14 10:52:18;;;;;;;2.03;1.52;;;19.10;51.70;;;;;;5076691;28;20025;-77
2023/05/14 10:54:58;;;;;;;2.42;1.83;;;19.10;51.80;;;;;;5075557;28;20389;-77
2023/05/14 10:57:26;;;;;;;2.55;1.83;;;19.00;52.00;;;;;;5076685;28;20021;-77
2023/05/14 10:59:58;;;;;;;2.22;1.80;;;19.00;50.80;;;;;;5075296;28;20047;-77
2023/05/14 11:02:31;;;;;;;1.83;1.65;;;18.90;50.20;;;;;;5075287;28;20027;-77
2023/05/14 11:05:07;;;;;;;1.80;1.70;;;18.90;51.60;;;;;;5075383;28;20454;-77
2023/05/14 11:07:43;;;;;;;2.20;2.00;;;19.20;52.50;;;;;;5076576;28;20458;-77
2023/05/14 11:10:13;;;;;;;1.60;1.50;;;19.20;51.90;;;;;;5076401;28;20032;-77
2023/05/14 11:12:41;;;;;;;1.83;1.73;;;19.40;52.40;;;;;;5075063;28;20119;-77
2023/05/14 11:15:09;;;;;;;1.55;1.45;;;19.60;52.00;;;;;;5074880;28;20440;-77
2023/05/14 11:17:36;;;;;;;2.28;2.00;;;19.60;52.30;;;;;;5074575;28;20466;-77
2023/05/14 11:20:04;;;;;;;1.70;1.50;;;19.70;52.10;;;;;;5074932;28;20029;-76
2023/05/14 11:22:29;;;;;;;2.47;1.60;;;19.60;52.30;;;;;;5074913;28;20078;-77
2023/05/14 11:24:55;;;;;;;2.00;1.70;;;19.60;53.00;;;;;;5076195;28;20021;-77
2023/05/14 11:27:22;;;;;;;2.92;1.67;;;19.50;53.30;;;;;;5076139;28;20363;-77
2023/05/14 11:29:49;;;;;;;1.90;1.80;;;19.60;53.00;;;;;;5076116;28;20032;-77
2023/05/14 11:32:15;;;;;;;2.72;2.00;;;19.70;53.50;;;;;;5075883;28;20100;-77
2023/05/14 11:34:45;;;;;;;2.28;2.08;;;19.50;53.70;;;;;;5074697;28;20544;-77
2023/05/14 11:37:12;;;;;;;2.10;2.00;;;19.40;53.30;;;;;;5074600;28;20115;-77
2023/05/14 11:39:39;;;;;;;2.72;2.53;;;19.40;54.30;;;;;;5075849;28;20028;-76
2023/05/14 11:42:10;;;;;;;3.20;2.22;;;19.40;53.90;;;;;;5074459;28;20020;-77
2023/05/14 11:44:37;;;;;;;2.45;2.10;;;19.40;54.10;;;;;;5074556;28;20028;-77
2023/05/14 11:47:04;;;;;;;2.20;1.65;;;19.40;54.10;;;;;;5075748;28;20024;-77
2023/05/14 11:49:30;;;;;;;2.47;1.90;;;19.30;54.30;;;;;;5075144;28;20024;-77
2023/05/14 11:52:01;;;;;;;2.33;2.10;;;19.40;54.10;;;;;;5074701;28;20017;-78
2023/05/14 11:54:27;;;;;;;2.30;2.10;;;19.60;54.30;;;;;;5076045;28;20031;-77
2023/05/14 11:56:58;;;;;;;2.90;1.65;;;19.80;54.70;;;;;;5074718;28;20028;-77
2023/05/14 11:59:26;;;;;;;2.10;1.90;;;19.90;54.10;;;;;;5075818;28;20119;-77
2023/05/14 12:01:51;;;;;;;2.20;2.00;;;19.90;53.70;;;;;;5073798;28;20035;-77
2023/05/14 12:04:21;;;;;;;1.70;1.60;;;19.90;53.70;;;;;;5074512;28;20103;-78
2023/05/14 12:06:51;;;;;;;2.25;2.08;;;20.10;53.60;;;;;;5075759;28;20028;-77
2023/05/14 12:09:20;;;;;;;2.05;1.70;;;20.00;53.60;;;;;;5075648;28;20103;-77
2023/05/14 12:11:47;;;;;;;2.55;2.08;;;20.20;54.10;;;;;;5074392;28;20017;-78
2023/05/14 12:14:18;;;;;;;2.13;1.98;;;19.90;53.50;;;;;;5074111;28;20020;-78
2023/05/14 12:16:45;;;;;;;4.35;1.73;;;20.00;53.60;;;;;;5074144;28;20024;-78
2023/05/14 12:19:13;;;;;;;3.30;2.20;;;20.10;53.30;;;;;;5074091;28;20085;-77
2023/05/14 12:21:39;;;;;;;2.72;2.00;;;20.10;54.80;;;;;;5075435;28;20107;-78
2023/05/14 12:24:10;;;;;;;3.63;2.50;;;20.00;54.20;;;;;;5073983;28;20051;-79
2023/05/14 12:26:37;;;;;;;1.90;1.73;;;19.80;53.60;;;;;;5075364;28;20359;-77
2023/05/14 12:29:03;;;;;;;1.92;1.83;;;19.90;54.40;;;;;;5075214;28;20024;-78
2023/05/14 12:31:37;;;;;;;3.22;1.95;;;20.00;54.70;;;;;;5075282;28;20040;-77
2023/05/14 12:34:03;;;;;;;2.33;2.13;;;20.10;54.30;;;;;;5074928;28;20074;-78
2023/05/14 12:36:31;;;;;;;1.73;1.63;;;20.20;53.60;;;;;;5075214;28;20067;-77
2023/05/14 12:39:01;;;;;;;4.57;2.08;;;20.20;53.40;;;;;;5074973;28;20036;-78
2023/05/14 12:41:27;;;;;;;2.08;1.88;;;19.90;53.00;;;;;;5090440;28;20388;-79
2023/05/14 12:43:52;;;;;;;2.25;1.95;;;19.90;53.50;;;;;;5093644;28;20173;-77
2023/05/14 12:46:18;;;;;;;2.33;1.70;;;19.90;53.40;;;;;;5093693;28;20020;-76